CW6020 Teulada ES current weather conditions

sailwx.info

Wind from 180 at 2 knots gusting 3

Air temperature 25.6° C
Dewpoint 18.7° C

Last reported at 2017-Sep-25 18:01 UTC.
Time now 2017-Sep-25 18:48 UTC

Location: N 38°44' E 000°06'.
View on Google Maps.

See reports from other nearby stations

  
Tides and Currents Weather Stations Pressure Air Temp Water Temp Dewpoint Dewpoint Depression Visibility Wind Speed Wind Dir Waves Ship Positions
date/time (UTC)wind fromknots sea level pressurealtimeterstation pressurevisibilityair tempwater tempwave heightnotes
2017-Sep-25 18:01 180 2 gusting 3 25.6
2017-Sep-25 17:51 180 2 gusting 4 26.1
2017-Sep-25 17:41 225 26.7
2017-Sep-25 17:31 180 1 gusting 2 26.7
2017-Sep-25 17:21 225 27.2
2017-Sep-25 17:11 225 2 gusting 3 27.8
2017-Sep-25 17:01 180 2 gusting 4 27.8
2017-Sep-25 16:51 180 2 gusting 5 28.3
2017-Sep-25 16:41 225 3 gusting 5 28.9
2017-Sep-25 16:31 135 3 gusting 5 28.9
2017-Sep-25 16:21 135 1 gusting 2 28.9
2017-Sep-25 16:11 090 3 gusting 7 29.4
2017-Sep-25 16:01 180 3 gusting 6 29.4
2017-Sep-25 15:51 135 4 gusting 6 30.0
2017-Sep-25 15:41 225 5 gusting 7 30.0
2017-Sep-25 15:31 225 5 gusting 7 30.0
2017-Sep-25 15:21 180 4 gusting 5 30.6
2017-Sep-25 15:11 315 4 gusting 6 30.6
2017-Sep-25 15:01 090 4 gusting 6 30.6
2017-Sep-25 14:51 225 5 gusting 7 30.6
2017-Sep-25 14:41 315 2 gusting 6 30.6
2017-Sep-25 14:31 135 4 gusting 7 31.1
2017-Sep-25 14:21 180 3 gusting 5 31.1
2017-Sep-25 14:11 180 3 gusting 6 31.1
2017-Sep-25 14:01 180 2 gusting 5 30.6
2017-Sep-25 13:51 180 2 gusting 4 30.6
2017-Sep-25 13:41 135 2 gusting 5 31.1
2017-Sep-25 13:31 135 3 gusting 5 31.1
2017-Sep-25 13:21 180 3 gusting 6 31.1
2017-Sep-25 13:11 225 1 gusting 2 31.1
2017-Sep-25 13:01 180 1 gusting 2 30.6
2017-Sep-25 12:51 180 2 gusting 6 30.6
2017-Sep-25 12:41 180 0 gusting 2 30.0
2017-Sep-25 12:31 180 3 gusting 4 30.0
2017-Sep-25 12:21 180 3 gusting 6 30.0
2017-Sep-25 12:11 090 3 gusting 5 30.0
2017-Sep-25 12:01 180 2 gusting 4 30.0
2017-Sep-25 11:51 225 3 gusting 5 30.0
2017-Sep-25 11:41 135 4 gusting 6 30.0
2017-Sep-25 11:31 090 2 gusting 2 29.4
2017-Sep-25 11:17 180 3 gusting 6 29.4
2017-Sep-25 11:06 180 3 gusting 5 29.4
2017-Sep-25 10:56 180 2 gusting 3 29.4
2017-Sep-25 10:46 135 2 gusting 4 29.4
2017-Sep-25 10:36 247 1 gusting 2 28.9
2017-Sep-25 10:26 180 1 gusting 2 28.9
2017-Sep-25 10:16 135 2 gusting 4 28.3
2017-Sep-25 10:06 180 2 gusting 2 27.8
2017-Sep-25 09:56 225 2 gusting 3 27.2
2017-Sep-25 09:46 135 26.7
2017-Sep-25 09:36 180 2 gusting 3 26.1
2017-Sep-25 09:26 25.6
2017-Sep-25 09:16 25.0
2017-Sep-25 09:06 24.4
2017-Sep-25 08:56 23.3
2017-Sep-25 08:46 22.8
2017-Sep-25 08:36 21.7
2017-Sep-25 08:26 20.6
2017-Sep-25 08:16 20.0
2017-Sep-25 08:06 18.9
2017-Sep-25 07:57 18.3
2017-Sep-25 07:46 17.8
2017-Sep-25 07:36 17.2
2017-Sep-25 07:26 16.7
2017-Sep-25 07:16 16.7
2017-Sep-25 07:06 16.1
2017-Sep-25 06:56 16.1
2017-Sep-25 06:46 16.1
2017-Sep-25 06:36 15.6
2017-Sep-25 06:26 15.6
2017-Sep-25 06:16 16.1
2017-Sep-25 06:06 15.6
2017-Sep-25 05:56 15.6
2017-Sep-25 05:46 15.6
2017-Sep-25 05:37 15.6
2017-Sep-25 05:26 15.6
2017-Sep-25 05:16 15.6
2017-Sep-25 05:06 16.1
2017-Sep-25 04:56 16.1
2017-Sep-25 04:46 16.1
2017-Sep-25 04:36 16.1
2017-Sep-25 04:26 16.1
2017-Sep-25 04:16 16.1
2017-Sep-25 04:06 16.1
2017-Sep-25 03:56 16.7
2017-Sep-25 03:46 16.7
2017-Sep-25 03:37 16.7
2017-Sep-25 03:26 16.7
2017-Sep-25 03:16 16.7
2017-Sep-25 03:06 16.7
2017-Sep-25 02:56 16.7
2017-Sep-25 02:46 17.2
2017-Sep-25 02:36 17.2
2017-Sep-25 02:26 17.2
2017-Sep-25 02:16 17.2
2017-Sep-25 02:06 17.2
2017-Sep-25 01:57 17.2
2017-Sep-25 01:46 17.2
2017-Sep-25 01:36 17.8
2017-Sep-25 01:26 17.8
2017-Sep-25 01:16 17.8
2017-Sep-25 01:06 17.8
2017-Sep-25 00:57 17.8
2017-Sep-25 00:46 17.8
2017-Sep-25 00:36 135 18.3
2017-Sep-25 00:26 18.3
2017-Sep-25 00:16 18.3
2017-Sep-25 00:06 18.3
2017-Sep-24 23:56 18.3
2017-Sep-24 23:46 180 18.9
2017-Sep-24 23:36 18.9
2017-Sep-24 23:26 18.9
2017-Sep-24 23:16 19.4
2017-Sep-24 23:06 19.4
2017-Sep-24 22:56 19.4
2017-Sep-24 22:46 19.4
2017-Sep-24 22:36 045 19.4
2017-Sep-24 22:26 19.4
2017-Sep-24 22:16 315 20.0
2017-Sep-24 22:06 090 20.0
2017-Sep-24 21:46 20.6
2017-Sep-24 21:36 20.6
2017-Sep-24 21:26 20.6
2017-Sep-24 21:16 20.6
2017-Sep-24 21:06 20.6
2017-Sep-24 20:56 21.1
2017-Sep-24 20:46 21.1
2017-Sep-24 20:26 21.1
2017-Sep-24 20:16 21.1
2017-Sep-24 20:06 21.7
2017-Sep-24 19:56 21.7
2017-Sep-24 19:46 21.7
2017-Sep-24 19:36 045 21.7
2017-Sep-24 19:26 22.2
2017-Sep-24 19:06 270 0 gusting 1 22.2
2017-Sep-24 18:51 225 1 gusting 2 22.8
2017-Sep-24 18:41 22.8
2017-Sep-24 18:31 225 22.8
2017-Sep-24 18:21 23.3
2017-Sep-24 18:11 23.9
2017-Sep-24 18:00 23.9
2017-Sep-24 17:46 180 0 gusting 1 24.4
2017-Sep-24 17:31 24.4
2017-Sep-24 17:21 180 2 gusting 3 25.0
2017-Sep-24 17:11 225 3 gusting 5 25.0
2017-Sep-24 17:01 180 5 gusting 8 25.6
2017-Sep-24 16:51 135 4 gusting 7 26.1
2017-Sep-24 16:40 180 3 gusting 6 26.7
2017-Sep-24 16:26 225 5 gusting 7 26.7
2017-Sep-24 16:11 225 1 gusting 2 27.2
2017-Sep-24 16:01 045 2 gusting 6 27.8
2017-Sep-24 15:51 180 4 gusting 6 27.8
2017-Sep-24 15:41 315 3 gusting 7 27.8
2017-Sep-24 15:31 315 5 gusting 7 27.8
2017-Sep-24 15:20 315 2 gusting 5 27.8
2017-Sep-24 15:06 270 2 gusting 5 27.8
2017-Sep-24 14:56 292 3 gusting 5 28.3
2017-Sep-24 14:46 180 3 gusting 5 28.3
2017-Sep-24 14:36 090 4 gusting 7 28.3
2017-Sep-24 14:26 180 3 gusting 6 28.3
2017-Sep-24 14:16 180 3 gusting 6 28.3
2017-Sep-24 14:06 135 4 gusting 7 28.3
2017-Sep-24 13:56 225 2 gusting 2 28.3
2017-Sep-24 13:46 180 4 gusting 7 27.8
2017-Sep-24 13:36 27.8
2017-Sep-24 13:26 135 5 gusting 7 27.8
2017-Sep-24 13:16 180 3 gusting 6 27.8
2017-Sep-24 13:06 315 2 gusting 6 27.8
2017-Sep-24 12:56 180 5 gusting 7 27.2
2017-Sep-24 12:46 180 5 gusting 9 27.2
2017-Sep-24 12:36 180 4 gusting 6 27.2
2017-Sep-24 12:26 27.2
2017-Sep-24 12:16 180 3 gusting 5 26.7
2017-Sep-24 12:06 135 5 gusting 6 26.7
2017-Sep-24 11:56 135 5 gusting 10 26.7
2017-Sep-24 11:46 180 5 gusting 6 26.7
2017-Sep-24 11:36 180 6 gusting 8 26.7
2017-Sep-24 11:26 135 6 gusting 10 26.7
2017-Sep-24 11:13 202 5 gusting 10 26.1
2017-Sep-24 11:01 180 5 gusting 7 25.6
2017-Sep-24 10:51 180 5 gusting 7 25.6
2017-Sep-24 10:41 180 5 gusting 9 25.6
2017-Sep-24 10:31 135 6 gusting 9 25.6
2017-Sep-24 10:21 135 5 gusting 6 25.6
2017-Sep-24 10:11 180 3 gusting 5 25.0
2017-Sep-24 10:01 180 5 gusting 7 25.0
2017-Sep-24 09:51 045 2 gusting 4 25.0
2017-Sep-24 09:41 270 2 gusting 4 25.0
2017-Sep-24 09:31 090 1 gusting 3 24.4
2017-Sep-24 09:21 180 3 gusting 5 23.9
2017-Sep-24 09:11 157 2 gusting 3 23.3
2017-Sep-24 09:01 135 1 gusting 4 22.8
2017-Sep-24 08:51 180 0 gusting 2 22.2
2017-Sep-24 08:41 180 1 gusting 2 21.7
2017-Sep-24 08:31 135 2 gusting 4 20.6
2017-Sep-24 08:21 20.0
2017-Sep-24 08:11 18.9
2017-Sep-24 08:01 17.8
2017-Sep-24 07:51 17.2
2017-Sep-24 07:41 16.7
2017-Sep-24 07:31 16.1
2017-Sep-24 07:21 15.6
2017-Sep-24 07:11 15.6
2017-Sep-24 07:01 15.0
2017-Sep-24 06:51 15.0
2017-Sep-24 06:41 15.0
2017-Sep-24 06:31 15.0
2017-Sep-24 06:21 15.0
2017-Sep-24 06:11 15.0
2017-Sep-24 06:01 15.0
2017-Sep-24 05:51 15.0
2017-Sep-24 05:41 15.0
2017-Sep-24 05:31 15.0
2017-Sep-24 05:21 15.0
2017-Sep-24 05:11 15.0
2017-Sep-24 05:01 15.0
2017-Sep-24 04:51 15.6
2017-Sep-24 04:41 15.6
2017-Sep-24 04:31 15.6
2017-Sep-24 04:21 15.6
2017-Sep-24 04:11 15.6
2017-Sep-24 04:01 15.6
2017-Sep-24 03:51 15.6
2017-Sep-24 03:41 15.6
2017-Sep-24 03:31 16.1
2017-Sep-24 03:21 16.1
2017-Sep-24 03:11 16.1
2017-Sep-24 03:01 16.1
2017-Sep-24 02:51 16.1
2017-Sep-24 02:41 16.1
2017-Sep-24 02:31 16.7
2017-Sep-24 02:21 16.7
2017-Sep-24 02:11 16.7
2017-Sep-24 02:01 16.7
2017-Sep-24 01:51 16.7
2017-Sep-24 01:41 16.7
2017-Sep-24 01:31 16.7
2017-Sep-24 01:21 16.7
2017-Sep-24 01:11 16.7
2017-Sep-24 01:01 16.7
2017-Sep-24 00:51 16.7
2017-Sep-24 00:41 16.7
2017-Sep-24 00:31 16.7
2017-Sep-24 00:21 16.7
2017-Sep-24 00:11 16.7
2017-Sep-24 00:01 17.2
2017-Sep-23 23:51 17.2
2017-Sep-23 23:41 17.2
2017-Sep-23 23:31 17.2
2017-Sep-23 23:21 17.2
2017-Sep-23 23:11 17.2
2017-Sep-23 23:01 17.2
2017-Sep-23 22:51 17.2
2017-Sep-23 22:41 17.8
2017-Sep-23 22:31 17.8
2017-Sep-23 22:21 17.8
2017-Sep-23 22:11 17.8
2017-Sep-23 22:01 18.3
2017-Sep-23 21:51 18.3
2017-Sep-23 21:41 18.3
2017-Sep-23 21:31 18.3
2017-Sep-23 21:21 18.9
2017-Sep-23 21:11 18.9
2017-Sep-23 21:01 18.9
2017-Sep-23 20:51 19.4
2017-Sep-23 20:41 19.4
2017-Sep-23 20:31 19.4
2017-Sep-23 20:21 20.0
2017-Sep-23 20:11 20.0
2017-Sep-23 20:01 20.6
2017-Sep-23 19:51 20.6
2017-Sep-23 19:41 21.1
2017-Sep-23 19:31 045 0 gusting 2 21.1
2017-Sep-23 19:21 21.7
2017-Sep-23 19:11 22.2
2017-Sep-23 19:01 22.2
2017-Sep-23 18:51 22.8
2017-Sep-23 18:41 22.8
2017-Sep-23 18:31 23.3
2017-Sep-23 18:21 23.9
2017-Sep-23 18:11 24.4
2017-Sep-23 18:01 25.0